createdAt,value
2018-05-25T00:01:44.110Z,20.60
2018-05-25T00:04:13.560Z,20.50
2018-05-25T00:06:42.850Z,20.40
2018-05-25T00:09:12.294Z,20.40
2018-05-25T00:11:41.751Z,20.30
2018-05-25T00:14:11.842Z,20.40
2018-05-25T00:16:48.173Z,20.40
2018-05-25T00:19:18.095Z,20.40
2018-05-25T00:21:47.456Z,20.50
2018-05-25T00:24:17.716Z,20.50
2018-05-25T00:26:47.251Z,20.50
2018-05-25T00:29:16.656Z,20.50
2018-05-25T00:31:45.946Z,20.60
2018-05-25T00:34:15.419Z,20.60
2018-05-25T00:36:44.788Z,20.60
2018-05-25T00:39:14.917Z,20.60
2018-05-25T00:41:44.224Z,20.50
2018-05-25T00:44:13.795Z,20.60
2018-05-25T00:46:43.652Z,20.60
2018-05-25T00:49:12.991Z,20.60
2018-05-25T00:51:42.437Z,20.60
2018-05-25T00:54:11.878Z,20.50
2018-05-25T00:56:41.182Z,20.30
2018-05-25T00:59:10.529Z,20.30
2018-05-25T01:01:40.988Z,20.20
2018-05-25T01:04:15.722Z,20.20
2018-05-25T01:06:45.134Z,20.20
2018-05-25T01:09:14.620Z,20.20
2018-05-25T01:11:43.966Z,20.20
2018-05-25T01:14:13.419Z,20.00
2018-05-25T01:16:43.732Z,19.50
2018-05-25T01:19:13.152Z,19.40
2018-05-25T01:21:43.300Z,18.90
2018-05-25T01:24:12.766Z,18.80
2018-05-25T01:26:42.366Z,18.60
2018-05-25T01:29:11.777Z,18.40
2018-05-25T01:31:43.058Z,18.30
2018-05-25T01:34:12.381Z,18.30
2018-05-25T01:36:41.792Z,18.20
2018-05-25T01:39:11.232Z,18.20
2018-05-25T01:41:41.983Z,18.00
2018-05-25T01:44:13.295Z,18.00
2018-05-25T01:46:42.979Z,17.90
2018-05-25T01:49:13.168Z,17.80
2018-05-25T01:51:45.701Z,17.60
2018-05-25T01:54:24.021Z,17.60
2018-05-25T01:56:59.670Z,17.50
2018-05-25T02:02:35.343Z,17.70
2018-05-25T02:05:13.307Z,17.80
2018-05-25T02:07:45.713Z,17.80
2018-05-25T02:10:16.048Z,17.90
2018-05-25T02:12:45.372Z,17.90
2018-05-25T02:15:14.684Z,17.80
2018-05-25T02:17:44.098Z,17.70
2018-05-25T02:20:13.978Z,17.60
2018-05-25T02:22:44.136Z,17.70
2018-05-25T02:25:13.544Z,17.60
2018-05-25T02:27:42.869Z,17.70
2018-05-25T02:30:12.451Z,17.70
2018-05-25T02:32:42.137Z,17.80
2018-05-25T02:35:11.982Z,17.70
2018-05-25T02:37:41.469Z,17.80
2018-05-25T02:40:10.885Z,17.70
2018-05-25T02:42:40.244Z,17.70
2018-05-25T02:45:09.681Z,17.80
2018-05-25T02:47:43.501Z,17.70
2018-05-25T02:50:12.932Z,17.80
2018-05-25T02:52:44.017Z,17.80
2018-05-25T02:55:13.992Z,17.90
2018-05-25T02:57:43.489Z,17.80
2018-05-25T03:00:12.897Z,17.80
2018-05-25T03:02:42.270Z,17.80
2018-05-25T03:05:16.104Z,17.80
2018-05-25T03:07:46.773Z,17.80
2018-05-25T03:10:16.926Z,17.80
2018-05-25T03:12:51.211Z,17.80
2018-05-25T03:15:24.094Z,17.80
2018-05-25T03:18:26.253Z,17.70
2018-05-25T03:20:57.833Z,17.70
2018-05-25T03:23:31.008Z,17.70
2018-05-25T03:26:01.761Z,17.70
2018-05-25T03:28:38.925Z,17.80
2018-05-25T03:31:11.349Z,17.70
2018-05-25T03:33:45.067Z,17.70
2018-05-25T03:36:25.014Z,17.80
2018-05-25T03:38:56.268Z,17.80
2018-05-25T03:41:25.787Z,17.80
2018-05-25T03:43:55.109Z,17.80
2018-05-25T03:46:24.608Z,17.80
2018-05-25T03:48:54.817Z,17.70
2018-05-25T03:51:24.790Z,17.70
2018-05-25T03:53:56.689Z,17.70
2018-05-25T03:56:26.007Z,17.80
2018-05-25T03:59:18.643Z,17.80
2018-05-25T04:01:59.617Z,17.80
2018-05-25T04:04:31.114Z,17.80
2018-05-25T04:07:00.779Z,17.90
2018-05-25T04:09:43.095Z,17.90
2018-05-25T04:12:16.417Z,17.90
2018-05-25T04:28:06.145Z,18.10
2018-05-25T04:30:35.560Z,18.00
2018-05-25T04:33:04.859Z,18.00
2018-05-25T04:35:34.186Z,18.00
2018-05-25T04:38:03.619Z,17.90
2018-05-25T04:40:33.633Z,17.90
2018-05-25T04:43:03.003Z,17.80
2018-05-25T04:59:01.089Z,17.70
2018-05-25T05:01:32.003Z,17.70
2018-05-25T05:04:01.530Z,17.80
2018-05-25T05:06:30.959Z,17.70
2018-05-25T05:09:00.525Z,17.70
2018-05-25T05:11:29.889Z,17.80
2018-05-25T05:13:59.347Z,17.70
2018-05-25T05:16:29.553Z,17.70
2018-05-25T05:18:59.038Z,17.70
2018-05-25T05:21:28.839Z,17.80
2018-05-25T05:23:58.282Z,17.90
2018-05-25T05:26:27.776Z,17.90
2018-05-25T05:29:00.598Z,18.00
2018-05-25T05:31:30.425Z,18.00
2018-05-25T05:34:00.101Z,18.00
2018-05-25T05:36:31.092Z,17.90
2018-05-25T05:39:00.533Z,17.90
2018-05-25T05:41:30.189Z,17.80
2018-05-25T05:43:59.739Z,17.70
2018-05-25T05:46:29.328Z,17.80
2018-05-25T05:48:59.097Z,17.70
2018-05-25T05:51:28.906Z,17.70
2018-05-25T05:53:58.291Z,17.70
2018-05-25T05:56:27.743Z,17.60
2018-05-25T05:58:57.844Z,17.60
2018-05-25T06:01:27.383Z,17.60
2018-05-25T06:03:56.868Z,17.70
2018-05-25T06:06:26.317Z,17.60
2018-05-25T06:08:55.967Z,17.60
2018-05-25T06:11:25.562Z,17.60
2018-05-25T06:13:55.813Z,17.60
2018-05-25T06:16:26.027Z,17.60
2018-05-25T06:18:55.637Z,17.60
2018-05-25T06:21:30.707Z,17.50
2018-05-25T06:24:00.396Z,17.40
2018-05-25T06:26:29.886Z,17.30
2018-05-25T06:28:59.344Z,17.40
2018-05-25T06:31:28.937Z,17.30
2018-05-25T06:33:59.181Z,17.20
2018-05-25T06:36:28.605Z,17.30
2018-05-25T06:42:30.574Z,17.20
2018-05-25T06:44:59.890Z,17.20
2018-05-25T06:50:50.563Z,17.20
2018-05-25T06:53:20.038Z,17.10
2018-05-25T06:55:49.674Z,17.00
2018-05-25T06:58:20.028Z,16.90
2018-05-25T07:04:11.789Z,16.90
2018-05-25T07:06:41.338Z,16.80
2018-05-25T07:09:11.721Z,16.90
2018-05-25T07:11:41.216Z,16.80
2018-05-25T07:14:10.727Z,16.90
2018-05-25T07:16:40.250Z,16.90
2018-05-25T07:19:09.766Z,16.90
2018-05-25T07:25:00.671Z,17.00
2018-05-25T07:27:30.038Z,17.10
2018-05-25T07:29:59.340Z,17.20
2018-05-25T07:35:50.613Z,17.20
2018-05-25T07:38:19.846Z,17.30
2018-05-25T07:40:49.166Z,17.30
2018-05-25T07:43:18.604Z,17.40
2018-05-25T07:45:47.869Z,17.40
2018-05-25T07:48:17.137Z,17.40
2018-05-25T07:50:46.626Z,17.40
2018-05-25T07:53:15.905Z,17.30
2018-05-25T07:59:06.276Z,17.30
2018-05-25T08:01:35.667Z,17.30
2018-05-25T08:04:04.908Z,17.30
2018-05-25T08:06:34.247Z,17.30
2018-05-25T08:09:03.497Z,17.30
2018-05-25T08:11:32.763Z,17.30
2018-05-25T08:14:02.181Z,17.30
2018-05-25T08:16:31.454Z,17.20
2018-05-25T08:19:01.524Z,17.10
2018-05-25T08:21:30.878Z,17.10
2018-05-25T08:24:01.182Z,17.10
2018-05-25T08:26:30.593Z,17.10
2018-05-25T08:28:59.966Z,17.10
2018-05-25T08:31:29.265Z,17.10
2018-05-25T08:33:58.570Z,17.00
2018-05-25T08:39:48.682Z,17.00
2018-05-25T08:42:18.026Z,17.00
2018-05-25T08:44:47.292Z,17.00
2018-05-25T08:47:16.566Z,17.00
2018-05-25T08:49:45.908Z,16.90
2018-05-25T08:52:15.232Z,16.90
2018-05-25T08:54:44.502Z,16.90
2018-05-25T08:57:13.982Z,16.80
2018-05-25T08:59:43.262Z,16.80
2018-05-25T09:02:12.608Z,16.70
2018-05-25T09:04:41.933Z,16.70
2018-05-25T09:07:11.274Z,16.80
2018-05-25T09:09:41.355Z,16.90
2018-05-25T09:12:10.676Z,16.80
2018-05-25T09:14:40.223Z,16.90
2018-05-25T09:17:09.479Z,16.80
2018-05-25T09:23:06.992Z,16.80
2018-05-25T09:25:36.263Z,16.90
2018-05-25T09:28:05.623Z,16.90
2018-05-25T09:33:56.314Z,16.90
2018-05-25T09:39:50.594Z,16.90
2018-05-25T09:42:20.342Z,16.80
2018-05-25T09:44:50.655Z,16.80
2018-05-25T09:47:21.025Z,16.90
2018-05-25T09:49:50.697Z,16.80
2018-05-25T09:52:21.036Z,16.80
2018-05-25T09:54:50.673Z,16.80
2018-05-25T09:57:20.285Z,16.80
2018-05-25T09:59:49.850Z,16.90
2018-05-25T10:02:45.872Z,16.80
2018-05-25T10:05:15.137Z,16.90
2018-05-25T10:07:44.520Z,16.80
2018-05-25T10:10:14.023Z,16.80
2018-05-25T10:12:43.528Z,16.90
2018-05-25T10:15:12.940Z,16.90
2018-05-25T10:17:42.495Z,16.90
2018-05-25T10:20:11.816Z,16.90
2018-05-25T10:22:41.210Z,16.90
2018-05-25T10:25:10.594Z,16.90
2018-05-25T10:27:40.719Z,16.90
2018-05-25T10:30:10.088Z,16.80
2018-05-25T10:32:39.382Z,16.80
2018-05-25T10:35:08.682Z,16.90
2018-05-25T10:37:38.106Z,16.90
2018-05-25T10:40:07.489Z,16.90
2018-05-25T10:42:36.785Z,16.90
2018-05-25T10:45:06.148Z,17.00
2018-05-25T10:47:35.519Z,17.00
2018-05-25T10:50:05.028Z,16.90
2018-05-25T10:55:55.052Z,16.90
2018-05-25T10:58:24.273Z,16.90
2018-05-25T11:00:53.509Z,17.00
2018-05-25T11:03:22.800Z,17.00
2018-05-25T11:05:52.210Z,17.00
2018-05-25T11:08:21.433Z,17.00
2018-05-25T11:10:50.639Z,17.00
2018-05-25T11:13:19.996Z,17.10
2018-05-25T11:15:49.277Z,17.10
2018-05-25T11:18:18.471Z,17.00
2018-05-25T11:20:47.781Z,17.00
2018-05-25T11:23:17.717Z,17.00
2018-05-25T11:25:46.941Z,17.00
2018-05-25T11:31:47.778Z,17.10
2018-05-25T11:34:17.890Z,17.10
2018-05-25T11:36:47.272Z,17.10
2018-05-25T11:39:16.567Z,17.10
2018-05-25T11:41:45.979Z,17.10
2018-05-25T11:44:15.388Z,17.10
2018-05-25T11:46:44.708Z,17.10
2018-05-25T11:49:14.107Z,17.10
2018-05-25T11:51:44.262Z,17.10
2018-05-25T11:54:13.560Z,17.10
2018-05-25T11:56:42.925Z,17.10
2018-05-25T11:59:12.435Z,17.20
2018-05-25T12:01:42.570Z,17.20
2018-05-25T12:04:11.952Z,17.10
2018-05-25T12:06:41.299Z,17.20
2018-05-25T12:09:10.663Z,17.20
2018-05-25T12:11:40.085Z,17.20
2018-05-25T12:14:09.514Z,17.30
2018-05-25T12:16:38.876Z,17.30
2018-05-25T12:19:08.280Z,17.30
2018-05-25T12:21:37.838Z,17.30
2018-05-25T12:24:07.206Z,17.40
2018-05-25T12:26:37.621Z,17.40
2018-05-25T12:29:06.980Z,17.50
2018-05-25T12:31:36.382Z,17.50
2018-05-25T12:34:05.750Z,17.50
2018-05-25T12:36:35.181Z,17.50
2018-05-25T12:39:04.788Z,17.60
2018-05-25T12:41:34.183Z,17.60
2018-05-25T12:44:04.614Z,17.60
2018-05-25T12:46:36.204Z,17.60
2018-05-25T12:49:07.895Z,17.70
2018-05-25T12:51:37.240Z,17.70
2018-05-25T12:54:06.666Z,17.80
2018-05-25T12:56:35.972Z,17.80
2018-05-25T12:59:05.382Z,17.80
2018-05-25T13:01:34.716Z,17.80
2018-05-25T13:04:04.059Z,17.80
2018-05-25T13:06:33.443Z,17.80
2018-05-25T13:09:02.787Z,17.70
2018-05-25T13:11:32.163Z,17.70
2018-05-25T13:14:01.665Z,17.70
2018-05-25T13:16:31.169Z,17.80
2018-05-25T13:19:00.750Z,17.80
2018-05-25T13:21:30.270Z,17.90
2018-05-25T13:23:59.646Z,17.90
2018-05-25T13:26:29.043Z,18.00
2018-05-25T13:28:58.498Z,18.00
2018-05-25T13:31:27.859Z,18.00
2018-05-25T13:33:57.206Z,18.00
2018-05-25T13:36:26.642Z,18.00
2018-05-25T13:38:55.978Z,18.00
2018-05-25T13:41:25.459Z,18.10
2018-05-25T13:43:54.889Z,18.10
2018-05-25T13:46:24.482Z,18.20
2018-05-25T13:48:53.930Z,18.30
2018-05-25T13:51:23.282Z,18.40
2018-05-25T13:53:53.623Z,18.60
2018-05-25T13:56:23.074Z,18.60
2018-05-25T13:58:52.377Z,18.70
2018-05-25T14:01:21.878Z,18.70
2018-05-25T14:03:51.249Z,18.60
2018-05-25T14:06:21.325Z,18.70
2018-05-25T14:08:50.723Z,18.60
2018-05-25T14:11:20.084Z,18.70
2018-05-25T14:13:50.158Z,18.80
2018-05-25T14:16:20.127Z,18.80
2018-05-25T14:18:50.263Z,18.70
2018-05-25T14:21:20.386Z,18.80
2018-05-25T14:23:52.926Z,18.80
2018-05-25T14:26:25.888Z,19.00
2018-05-25T14:28:58.127Z,19.10
2018-05-25T14:31:29.273Z,19.20
2018-05-25T14:34:10.861Z,19.30
2018-05-25T14:36:40.889Z,19.40
2018-05-25T14:39:11.525Z,19.50
2018-05-25T14:41:41.868Z,19.70
2018-05-25T14:44:12.646Z,20.00
2018-05-25T14:46:42.319Z,20.20
2018-05-25T14:49:13.850Z,20.50
2018-05-25T14:51:43.590Z,21.00
2018-05-25T14:54:13.104Z,21.50
2018-05-25T14:56:45.048Z,21.60
2018-05-25T14:59:15.639Z,21.60
2018-05-25T15:01:45.762Z,21.20
2018-05-25T15:04:15.177Z,21.20
2018-05-25T15:06:45.376Z,21.20
2018-05-25T15:09:14.819Z,21.20
2018-05-25T15:11:44.348Z,21.10
2018-05-25T15:14:13.734Z,21.10
2018-05-25T15:16:43.222Z,21.20
2018-05-25T15:19:13.590Z,21.40
2018-05-25T15:21:43.040Z,21.40
2018-05-25T15:24:12.399Z,21.70
2018-05-25T15:26:42.378Z,21.80
2018-05-25T15:29:18.970Z,21.70
2018-05-25T15:31:51.344Z,21.60
2018-05-25T15:34:20.745Z,21.40
2018-05-25T15:36:50.189Z,21.50
2018-05-25T15:39:23.204Z,21.80
2018-05-25T15:41:52.558Z,21.70
2018-05-25T15:44:21.993Z,21.70
2018-05-25T15:46:54.308Z,22.00
2018-05-25T15:49:23.662Z,22.10
2018-05-25T15:51:53.119Z,22.20
2018-05-25T15:54:22.661Z,22.30
2018-05-25T15:56:52.138Z,22.70
2018-05-25T15:59:21.718Z,23.10
2018-05-25T16:01:51.920Z,23.40
2018-05-25T16:04:21.210Z,23.30
2018-05-25T16:06:50.474Z,23.70
2018-05-25T16:09:20.019Z,23.80
2018-05-25T16:11:50.090Z,23.90
2018-05-25T16:14:20.389Z,24.30
2018-05-25T16:16:52.891Z,24.30
2018-05-25T16:19:22.195Z,24.40
2018-05-25T16:21:52.068Z,24.30
2018-05-25T16:24:22.290Z,23.90
2018-05-25T16:26:51.804Z,23.70
2018-05-25T16:29:23.506Z,24.00
2018-05-25T16:31:53.006Z,24.10
2018-05-25T16:34:22.855Z,24.30
2018-05-25T16:36:52.415Z,24.40
2018-05-25T16:39:21.731Z,24.20
2018-05-25T16:41:51.000Z,24.50
2018-05-25T16:44:20.645Z,24.80
2018-05-25T16:46:50.339Z,24.40
2018-05-25T16:49:20.452Z,24.60
2018-05-25T16:51:49.773Z,24.60
2018-05-25T16:54:19.052Z,24.60
2018-05-25T16:56:48.247Z,25.00
2018-05-25T16:59:18.302Z,25.60
2018-05-25T17:01:47.636Z,25.60
2018-05-25T17:04:16.931Z,25.90
2018-05-25T17:06:47.356Z,26.00
2018-05-25T17:09:16.656Z,26.00
2018-05-25T17:11:45.872Z,26.00
2018-05-25T17:14:15.193Z,26.10
2018-05-25T17:16:44.493Z,26.00
2018-05-25T17:19:13.750Z,25.90
2018-05-25T17:21:43.033Z,25.60
2018-05-25T17:24:12.324Z,25.60
2018-05-25T17:26:41.841Z,25.50
2018-05-25T17:29:11.066Z,25.80
2018-05-25T17:31:40.361Z,25.60
2018-05-25T17:34:10.700Z,25.50
2018-05-25T17:36:40.184Z,25.80
2018-05-25T17:39:09.656Z,26.50
2018-05-25T17:41:39.158Z,26.50
2018-05-25T17:44:10.904Z,26.60
2018-05-25T17:46:40.198Z,26.60
2018-05-25T17:49:09.428Z,26.70
2018-05-25T17:51:38.653Z,26.50
2018-05-25T17:54:07.999Z,26.40
2018-05-25T17:56:37.267Z,26.50
2018-05-25T17:59:06.571Z,26.30
2018-05-25T18:01:39.645Z,26.40
2018-05-25T18:04:08.985Z,26.60
2018-05-25T18:06:38.501Z,26.70
2018-05-25T18:09:08.518Z,26.60
2018-05-25T18:15:10.394Z,27.10
2018-05-25T18:17:39.765Z,27.20
2018-05-25T18:20:09.377Z,27.30
2018-05-25T18:22:39.044Z,26.70
2018-05-25T18:25:09.329Z,26.70
2018-05-25T18:27:38.858Z,26.60
2018-05-25T18:30:08.514Z,26.60
2018-05-25T18:32:37.980Z,26.50
2018-05-25T18:35:07.589Z,26.70
2018-05-25T18:37:36.975Z,27.10
2018-05-25T18:40:06.365Z,27.20
2018-05-25T18:42:35.958Z,26.90
2018-05-25T18:45:05.555Z,26.70
2018-05-25T18:47:35.683Z,27.30
2018-05-25T18:50:05.584Z,27.30
2018-05-25T18:52:34.949Z,27.50
2018-05-25T18:55:04.309Z,27.60
2018-05-25T18:57:33.630Z,27.60
2018-05-25T19:00:03.011Z,27.70
2018-05-25T19:02:32.289Z,27.80
2018-05-25T19:05:01.662Z,27.30
2018-05-25T19:07:31.239Z,27.00
2018-05-25T19:10:00.639Z,27.50
2018-05-25T19:12:30.156Z,27.50
2018-05-25T19:14:59.532Z,27.00
2018-05-25T19:17:28.878Z,27.20
2018-05-25T19:19:58.375Z,27.80
2018-05-25T19:22:28.636Z,28.30
2018-05-25T19:24:57.944Z,28.30
2018-05-25T19:27:28.109Z,27.60
2018-05-25T19:29:57.613Z,27.60
2018-05-25T19:35:48.014Z,27.80
2018-05-25T19:38:52.186Z,27.50
2018-05-25T19:41:21.911Z,27.50
2018-05-25T19:43:53.613Z,27.30
2018-05-25T19:46:23.046Z,27.00
2018-05-25T19:48:52.640Z,26.70
2018-05-25T19:51:22.362Z,26.70
2018-05-25T19:53:51.974Z,27.00
2018-05-25T19:57:09.712Z,27.20
2018-05-25T19:59:39.261Z,26.70
2018-05-25T20:02:11.685Z,26.70
2018-05-25T20:04:42.467Z,26.70
2018-05-25T20:07:13.676Z,26.90
2018-05-25T20:09:44.886Z,27.40
2018-05-25T20:12:15.309Z,27.10
2018-05-25T20:14:47.352Z,26.40
2018-05-25T20:17:16.926Z,26.40
2018-05-25T20:19:46.618Z,26.10
2018-05-25T20:22:18.489Z,26.10
2018-05-25T20:24:48.895Z,26.20
2018-05-25T20:27:22.656Z,26.20
2018-05-25T20:29:53.746Z,26.20
2018-05-25T20:32:24.300Z,26.30
2018-05-25T20:34:53.932Z,26.40
2018-05-25T20:37:23.407Z,26.60
2018-05-25T20:39:54.271Z,26.90
2018-05-25T20:42:23.792Z,26.80
2018-05-25T20:44:54.259Z,27.10
2018-05-25T20:50:58.021Z,27.50
2018-05-25T20:53:28.373Z,27.40
2018-05-25T20:56:02.873Z,27.00
2018-05-25T20:58:35.593Z,26.70
2018-05-25T21:01:08.061Z,26.60
2018-05-25T21:03:38.644Z,26.60
2018-05-25T21:06:08.072Z,26.20
2018-05-25T21:08:54.094Z,26.00
2018-05-25T21:11:29.870Z,26.10
2018-05-25T21:14:01.685Z,25.80
2018-05-25T21:16:32.977Z,25.70
2018-05-25T21:19:05.042Z,25.50
2018-05-25T21:21:44.263Z,25.60
2018-05-25T21:24:14.564Z,25.50
2018-05-25T21:26:44.417Z,25.50
2018-05-25T21:29:14.261Z,25.50
2018-05-25T21:31:43.714Z,25.50
2018-05-25T21:34:13.508Z,25.30
2018-05-25T21:37:03.186Z,25.00
2018-05-25T21:39:33.479Z,24.60
2018-05-25T21:42:04.148Z,24.60
2018-05-25T21:44:33.715Z,24.60
2018-05-25T21:47:03.172Z,24.50
2018-05-25T21:49:34.830Z,24.50
2018-05-25T21:52:04.282Z,24.40
2018-05-25T21:54:33.738Z,24.40
2018-05-25T21:57:03.340Z,24.30
2018-05-25T21:59:32.712Z,24.20
2018-05-25T22:02:03.546Z,24.10
2018-05-25T22:04:32.907Z,24.10
2018-05-25T22:07:03.043Z,24.10
2018-05-25T22:09:32.456Z,24.10
2018-05-25T22:12:01.769Z,24.10
2018-05-25T22:14:31.164Z,23.70
2018-05-25T22:17:01.093Z,23.30
2018-05-25T22:19:30.477Z,22.80
2018-05-25T22:21:59.873Z,22.30
2018-05-25T22:24:29.255Z,21.90
2018-05-25T22:26:58.708Z,22.10
2018-05-25T22:29:28.069Z,22.20
2018-05-25T22:31:58.172Z,21.50
2018-05-25T22:34:27.570Z,21.50
2018-05-25T22:36:56.918Z,21.30
2018-05-25T22:39:50.096Z,20.80
2018-05-25T22:42:30.872Z,20.40
2018-05-25T22:45:11.501Z,20.00
2018-05-25T22:47:52.153Z,19.90
2018-05-25T22:50:33.428Z,19.70
2018-05-25T22:53:07.083Z,19.60
2018-05-25T22:55:36.657Z,19.50
2018-05-25T22:58:06.035Z,19.50
2018-05-25T23:00:36.268Z,19.50
2018-05-25T23:03:06.515Z,19.50
2018-05-25T23:05:35.879Z,19.40
2018-05-25T23:08:05.224Z,19.50
2018-05-25T23:10:34.721Z,19.50
2018-05-25T23:13:04.125Z,19.50
2018-05-25T23:15:33.720Z,19.60
2018-05-25T23:21:25.993Z,19.80
2018-05-25T23:23:56.220Z,19.80
2018-05-25T23:26:25.721Z,19.90
2018-05-25T23:28:55.183Z,19.90
2018-05-25T23:31:24.602Z,19.90
2018-05-25T23:33:54.861Z,19.90
2018-05-25T23:36:24.316Z,19.80
2018-05-25T23:38:54.610Z,19.70
2018-05-25T23:41:24.094Z,19.70
2018-05-25T23:43:53.472Z,19.70
2018-05-25T23:46:23.279Z,19.60
2018-05-25T23:48:54.750Z,19.60
2018-05-25T23:51:33.089Z,19.50
2018-05-25T23:54:02.721Z,19.70
2018-05-25T23:59:53.492Z,19.70
